Weather at Goderich Airport

Public forecast

Using degrees Celsius for public forecast. Weather courtesy of forecast.io.

Closest aviation weather report (METAR) to Goderich Airport

Closest report is London Airport, 50.2 nm (92.9 km) SSE. Retrieved 2021/10/18 07:00 UTC (43 minutes ago):

CYXU 180700Z 29004KT 15SM FEW040 08/05 A2995 RMK SC1 SLP147

Closest aviation forecast (TAF) to Goderich Airport

Closest forecast is London Airport, 50.2 nm (92.9 km) SSE. Retrieved 2021/10/18 06:42 UTC (1 hour ago):

TAF CYXU 180538Z 1806/1906 33010G20KT P6SM BKN030 TEMPO 1808/1812 5SM -SHRA BR OVC020 FM181400 32010G20KT P6SM BKN050 FM181800 33010G20KT P6SM SCT050 FM182300 32010KT P6SM FEW050 BECMG 1901/1903 24005KT RMK NXT FCST BY 181200Z